createdAt,value
2022-09-09T00:00:26.990Z,2.80
2022-09-09T00:03:03.634Z,2.78
2022-09-09T00:05:33.866Z,1.27
2022-09-09T00:08:02.293Z,2.47
2022-09-09T00:13:18.133Z,2.80
2022-09-09T00:15:45.877Z,2.80
2022-09-09T00:18:19.887Z,6.13
2022-09-09T00:20:54.928Z,2.13
2022-09-09T00:23:35.617Z,2.50
2022-09-09T00:26:10.080Z,3.83
2022-09-09T00:31:13.746Z,1.67
2022-09-09T00:33:42.045Z,2.70
2022-09-09T00:36:14.591Z,1.92
2022-09-09T00:38:43.744Z,2.38
2022-09-09T00:41:19.152Z,1.83
2022-09-09T00:43:48.285Z,2.20
2022-09-09T00:46:31.171Z,4.75
2022-09-09T00:49:10.444Z,3.65
2022-09-09T00:51:52.536Z,4.28
2022-09-09T00:54:38.325Z,6.85
2022-09-09T00:57:12.096Z,3.47
2022-09-09T01:00:05.724Z,3.47
2022-09-09T01:02:51.157Z,3.75
2022-09-09T01:05:22.226Z,4.85
2022-09-09T01:07:53.052Z,5.28
2022-09-09T01:10:42.367Z,2.25
2022-09-09T01:13:16.452Z,2.90
2022-09-09T01:15:43.901Z,2.95
2022-09-09T01:18:13.551Z,2.47
2022-09-09T01:21:00.217Z,2.25
2022-09-09T01:23:47.261Z,2.60
2022-09-09T01:26:15.614Z,6.45
2022-09-09T01:31:11.363Z,1.92
2022-09-09T01:33:38.679Z,5.35
2022-09-09T01:36:29.766Z,2.40
2022-09-09T01:39:21.909Z,5.80
2022-09-09T01:42:28.884Z,3.13
2022-09-09T01:45:11.104Z,2.47
2022-09-09T01:47:38.270Z,3.95
2022-09-09T01:50:05.539Z,6.63
2022-09-09T01:52:35.434Z,2.75
2022-09-09T01:55:02.528Z,2.65
2022-09-09T01:57:32.835Z,2.65
2022-09-09T01:59:59.886Z,2.53
2022-09-09T02:02:45.434Z,3.90
2022-09-09T02:05:27.696Z,4.53
2022-09-09T02:08:01.369Z,1.40
2022-09-09T02:10:34.719Z,3.58
2022-09-09T02:13:19.135Z,4.53
2022-09-09T02:15:54.196Z,1.52
2022-09-09T02:18:28.079Z,3.20
2022-09-09T02:20:55.741Z,2.53
2022-09-09T02:23:22.811Z,3.75
2022-09-09T02:25:52.537Z,5.18
2022-09-09T02:28:20.947Z,2.47
2022-09-09T02:33:16.049Z,2.85
2022-09-09T02:35:43.784Z,3.20
2022-09-09T02:38:14.572Z,1.95
2022-09-09T02:40:41.831Z,4.65
2022-09-09T02:43:08.885Z,3.35
2022-09-09T02:45:59.201Z,3.83
2022-09-09T02:48:37.117Z,6.30
2022-09-09T02:51:16.728Z,3.30
2022-09-09T02:53:49.608Z,4.43
2022-09-09T02:56:18.104Z,4.05
2022-09-09T02:58:45.255Z,3.80
2022-09-09T03:01:12.292Z,6.50
2022-09-09T03:03:40.796Z,10.40
2022-09-09T03:06:07.899Z,3.85
2022-09-09T03:08:35.071Z,4.95
2022-09-09T03:11:27.965Z,4.13
2022-09-09T03:13:56.929Z,4.05
2022-09-09T03:16:25.010Z,3.72
2022-09-09T03:18:52.490Z,4.43
2022-09-09T03:21:19.539Z,4.70
2022-09-09T03:23:46.997Z,7.75
2022-09-09T03:26:16.158Z,4.82
2022-09-09T03:28:44.274Z,7.05
2022-09-09T03:31:44.192Z,4.30
2022-09-09T03:34:11.627Z,7.20
2022-09-09T03:36:38.929Z,2.88
2022-09-09T03:39:05.979Z,5.50
2022-09-09T03:41:33.096Z,4.43
2022-09-09T03:44:00.156Z,2.92
2022-09-09T03:46:27.883Z,6.22
2022-09-09T03:48:55.016Z,3.05
2022-09-09T03:51:22.913Z,4.78
2022-09-09T03:53:50.100Z,7.60
2022-09-09T03:56:17.156Z,2.67
2022-09-09T03:58:44.706Z,4.07
2022-09-09T04:01:15.672Z,5.35
2022-09-09T04:03:43.315Z,4.35
2022-09-09T04:06:12.773Z,7.72
2022-09-09T04:08:40.283Z,3.92
2022-09-09T04:11:07.816Z,5.20
2022-09-09T04:13:39.988Z,6.43
2022-09-09T04:16:07.710Z,5.07
2022-09-09T04:18:35.623Z,4.90
2022-09-09T04:21:04.593Z,3.03
2022-09-09T04:23:31.769Z,4.65
2022-09-09T04:26:01.361Z,5.22
2022-09-09T04:28:29.881Z,4.03
2022-09-09T04:30:57.936Z,6.95
2022-09-09T04:33:27.561Z,6.63
2022-09-09T04:35:55.092Z,9.13
2022-09-09T04:38:23.915Z,5.45
2022-09-09T04:40:52.415Z,6.03
2022-09-09T04:43:20.037Z,7.13
2022-09-09T04:45:49.127Z,7.10
2022-09-09T04:48:16.430Z,5.18
2022-09-09T04:50:43.497Z,4.78
2022-09-09T04:53:10.695Z,4.55
2022-09-09T04:55:37.819Z,3.40
2022-09-09T04:58:06.234Z,6.82
2022-09-09T05:03:04.054Z,10.65
2022-09-09T05:05:31.213Z,6.13
2022-09-09T05:08:03.095Z,6.25
2022-09-09T05:10:30.285Z,4.47
2022-09-09T05:12:57.628Z,6.25
2022-09-09T05:15:25.033Z,8.30
2022-09-09T05:17:54.073Z,5.10
2022-09-09T05:20:21.201Z,9.32
2022-09-09T05:22:55.348Z,6.90
2022-09-09T05:25:23.182Z,6.78
2022-09-09T05:27:50.621Z,6.32
2022-09-09T05:30:19.831Z,6.30
2022-09-09T05:32:49.730Z,9.60
2022-09-09T05:35:17.466Z,10.07
2022-09-09T05:37:46.930Z,6.47
2022-09-09T05:40:14.595Z,8.43
2022-09-09T05:42:42.194Z,7.63
2022-09-09T05:45:10.295Z,10.52
2022-09-09T05:47:38.239Z,17.75
2022-09-09T05:50:05.821Z,8.90
2022-09-09T05:52:33.637Z,7.22
2022-09-09T05:55:00.829Z,6.95
2022-09-09T05:57:27.959Z,8.25
2022-09-09T05:59:55.014Z,7.60
2022-09-09T06:02:22.187Z,7.10
2022-09-09T06:04:49.357Z,6.93
2022-09-09T06:07:16.402Z,7.60
2022-09-09T06:09:43.773Z,7.38
2022-09-09T06:12:10.896Z,5.93
2022-09-09T06:14:38.020Z,6.18
2022-09-09T06:17:06.097Z,6.53
2022-09-09T06:22:00.222Z,8.50
2022-09-09T06:24:27.304Z,9.57
2022-09-09T06:26:54.996Z,6.18
2022-09-09T06:29:22.089Z,5.60
2022-09-09T06:31:49.219Z,7.72
2022-09-09T06:34:16.388Z,6.03
2022-09-09T06:36:43.789Z,7.18
2022-09-09T06:39:14.767Z,5.80
2022-09-09T06:41:43.304Z,7.50
2022-09-09T06:44:12.656Z,11.13
2022-09-09T07:20:19.111Z,13.05
2022-09-09T07:22:46.181Z,10.07
2022-09-09T07:25:13.374Z,9.10
2022-09-09T07:27:41.753Z,8.32
2022-09-09T07:30:09.273Z,8.00
2022-09-09T07:32:36.359Z,9.48
2022-09-09T07:35:03.440Z,7.93
2022-09-09T07:37:30.539Z,8.20
2022-09-09T07:39:58.468Z,7.18
2022-09-09T07:42:25.558Z,8.40
2022-09-09T07:44:55.807Z,6.82
2022-09-09T07:47:22.901Z,9.93
2022-09-09T07:49:50.880Z,9.77
2022-09-09T07:52:23.164Z,9.07
2022-09-09T07:54:50.297Z,9.27
2022-09-09T07:57:19.541Z,9.98
2022-09-09T07:59:53.228Z,8.65
2022-09-09T08:02:20.347Z,7.35
2022-09-09T08:04:47.413Z,11.38
2022-09-09T08:07:14.750Z,9.88
2022-09-09T08:09:46.599Z,6.35
2022-09-09T08:12:14.133Z,8.68
2022-09-09T08:14:41.275Z,8.40
2022-09-09T08:17:08.374Z,9.52
2022-09-09T08:19:36.814Z,10.02
2022-09-09T08:22:04.687Z,7.20
2022-09-09T08:24:31.815Z,7.47
2022-09-09T08:26:59.054Z,8.65
2022-09-09T08:29:26.193Z,11.95
2022-09-09T08:31:55.461Z,10.77
2022-09-09T08:34:23.160Z,4.55
2022-09-09T08:36:50.898Z,8.70
2022-09-09T08:39:19.761Z,10.35
2022-09-09T08:41:46.871Z,7.18
2022-09-09T08:44:23.949Z,9.27
2022-09-09T08:47:00.216Z,12.05
2022-09-09T09:10:42.470Z,8.60
2022-09-09T09:13:14.430Z,7.20
2022-09-09T09:28:06.783Z,7.38
2022-09-09T09:30:46.907Z,12.55
2022-09-09T09:33:14.142Z,8.55
2022-09-09T09:35:44.405Z,6.80
2022-09-09T09:41:05.576Z,7.05
2022-09-09T09:43:36.832Z,7.90
2022-09-09T09:46:19.113Z,7.97
2022-09-09T09:48:47.651Z,8.77
2022-09-09T09:51:16.962Z,8.15
2022-09-09T09:53:44.493Z,8.23
2022-09-09T09:56:13.073Z,10.18
2022-09-09T09:58:40.208Z,9.50
2022-09-09T10:01:07.349Z,9.50
2022-09-09T10:03:42.018Z,10.32
2022-09-09T10:06:09.068Z,7.03
2022-09-09T10:08:48.683Z,9.77
2022-09-09T10:11:22.584Z,9.38
2022-09-09T10:13:59.471Z,7.65
2022-09-09T10:16:32.859Z,8.23
2022-09-09T10:19:01.211Z,7.28
2022-09-09T10:24:05.219Z,10.75
2022-09-09T10:26:32.368Z,15.07
2022-09-09T10:29:19.808Z,8.45
2022-09-09T10:32:13.010Z,11.05
2022-09-09T10:34:59.883Z,7.72
2022-09-09T10:37:33.974Z,8.38
2022-09-09T10:40:13.301Z,4.90
2022-09-09T10:42:40.606Z,8.15
2022-09-09T10:45:18.115Z,7.82
2022-09-09T10:47:52.477Z,6.55
2022-09-09T10:50:57.223Z,6.43
2022-09-09T10:53:17.608Z,13.98
2022-09-09T10:55:46.325Z,8.20
2022-09-09T10:58:20.273Z,12.65
2022-09-09T11:00:57.409Z,7.43
2022-09-09T11:03:32.714Z,6.03
2022-09-09T11:06:14.585Z,10.02
2022-09-09T11:08:41.942Z,7.20
2022-09-09T11:11:42.094Z,6.93
2022-09-09T11:14:23.013Z,10.80
2022-09-09T11:16:50.656Z,7.38
2022-09-09T11:19:30.204Z,5.68
2022-09-09T11:22:24.983Z,7.22
2022-09-09T11:24:58.081Z,6.85
2022-09-09T11:27:28.265Z,8.60
2022-09-09T11:30:06.757Z,5.97
2022-09-09T11:32:44.981Z,6.55
2022-09-09T11:35:27.039Z,7.70
2022-09-09T11:38:06.642Z,8.25
2022-09-09T11:40:34.557Z,7.32
2022-09-09T11:43:13.479Z,5.95
2022-09-09T11:45:42.161Z,6.68
2022-09-09T11:48:27.229Z,6.60
2022-09-09T11:51:30.181Z,6.25
2022-09-09T11:53:59.644Z,9.20
2022-09-09T11:56:40.536Z,9.15
2022-09-09T11:59:08.701Z,6.38
2022-09-09T12:01:35.848Z,7.53
2022-09-09T12:04:12.180Z,9.57
2022-09-09T12:06:51.786Z,6.13
2022-09-09T12:09:25.237Z,5.55
2022-09-09T12:11:52.701Z,5.53
2022-09-09T12:14:40.085Z,7.05
2022-09-09T12:17:22.098Z,6.68
2022-09-09T12:19:51.139Z,7.57
2022-09-09T12:22:25.948Z,8.90
2022-09-09T12:24:53.068Z,7.55
2022-09-09T12:27:28.409Z,4.45
2022-09-09T12:30:09.320Z,7.70
2022-09-09T12:32:36.590Z,6.43
2022-09-09T12:35:22.708Z,8.20
2022-09-09T12:37:49.841Z,7.10
2022-09-09T12:40:19.893Z,9.38
2022-09-09T12:42:46.983Z,4.88
2022-09-09T12:45:27.944Z,5.53
2022-09-09T12:47:55.212Z,7.93
2022-09-09T12:50:27.539Z,7.93
2022-09-09T12:52:59.446Z,5.72
2022-09-09T12:55:31.244Z,7.40
2022-09-09T12:58:00.398Z,9.15
2022-09-09T13:00:27.849Z,9.57
2022-09-09T13:03:00.070Z,10.10
2022-09-09T13:05:28.978Z,6.03
2022-09-09T13:08:05.245Z,7.30
2022-09-09T13:10:52.423Z,5.38
2022-09-09T13:13:32.226Z,5.63
2022-09-09T13:16:00.278Z,4.60
2022-09-09T13:18:32.140Z,10.60
2022-09-09T13:20:59.638Z,8.23
2022-09-09T13:23:32.003Z,9.10
2022-09-09T13:26:28.625Z,9.85
2022-09-09T13:28:56.905Z,7.78
2022-09-09T13:33:51.393Z,7.82
2022-09-09T13:36:31.176Z,11.50
2022-09-09T13:39:00.420Z,5.40
2022-09-09T13:41:31.680Z,8.02
2022-09-09T13:43:58.873Z,6.88
2022-09-09T13:46:36.257Z,5.03
2022-09-09T13:49:23.820Z,7.10
2022-09-09T13:52:04.384Z,9.18
2022-09-09T13:54:33.543Z,7.82
2022-09-09T13:57:03.429Z,12.10
2022-09-09T13:59:54.061Z,11.60
2022-09-09T14:02:17.871Z,5.55
2022-09-09T14:04:45.305Z,8.70
2022-09-09T14:07:16.878Z,6.85
2022-09-09T14:09:44.350Z,7.18
2022-09-09T14:12:15.953Z,7.63
2022-09-09T14:14:43.628Z,9.05
2022-09-09T14:17:10.740Z,9.77
2022-09-09T14:19:40.916Z,6.20
2022-09-09T14:22:08.005Z,9.88
2022-09-09T14:24:35.163Z,6.68
2022-09-09T14:27:02.298Z,5.65
2022-09-09T14:29:29.390Z,7.55
2022-09-09T14:31:56.481Z,9.23
2022-09-09T14:34:23.545Z,8.48
2022-09-09T14:36:51.434Z,5.78
2022-09-09T14:39:18.530Z,7.15
2022-09-09T14:41:46.476Z,6.47
2022-09-09T14:44:13.619Z,7.70
2022-09-09T14:46:43.841Z,7.75
2022-09-09T14:49:14.233Z,6.03
2022-09-09T14:51:41.325Z,4.63
2022-09-09T14:54:08.393Z,4.38
2022-09-09T14:56:35.952Z,4.75
2022-09-09T14:59:05.146Z,2.53
2022-09-09T15:01:33.129Z,3.83
2022-09-09T15:04:04.760Z,2.95
2022-09-09T15:06:34.325Z,5.10
2022-09-09T15:09:01.673Z,3.22
2022-09-09T15:11:31.315Z,4.05
2022-09-09T15:13:59.188Z,4.32
2022-09-09T15:16:28.023Z,2.65
2022-09-09T15:18:56.497Z,6.40
2022-09-09T15:21:26.247Z,3.83
2022-09-09T15:23:55.484Z,6.68
2022-09-09T15:26:22.898Z,3.80
2022-09-09T15:28:51.684Z,3.67
2022-09-09T15:31:20.394Z,4.95
2022-09-09T15:33:51.176Z,4.00
2022-09-09T15:36:18.249Z,5.40
2022-09-09T15:38:45.331Z,6.13
2022-09-09T15:41:13.211Z,6.72
2022-09-09T15:43:40.436Z,3.33
2022-09-09T15:46:19.710Z,4.55
2022-09-09T15:48:52.309Z,2.47
2022-09-09T15:51:41.241Z,4.28
2022-09-09T15:54:10.561Z,3.38
2022-09-09T15:56:37.603Z,4.85
2022-09-09T15:59:04.734Z,3.75
2022-09-09T16:01:32.332Z,5.25
2022-09-09T16:04:00.964Z,2.65
2022-09-09T16:06:29.277Z,5.28
2022-09-09T16:08:57.374Z,5.65
2022-09-09T16:11:26.228Z,5.22
2022-09-09T16:13:53.838Z,5.82
2022-09-09T16:16:22.997Z,4.57
2022-09-09T16:18:52.512Z,7.78
2022-09-09T16:21:22.830Z,7.15
2022-09-09T16:23:50.967Z,6.45
2022-09-09T16:26:18.777Z,5.78
2022-09-09T16:28:47.396Z,7.38
2022-09-09T16:31:19.330Z,5.47
2022-09-09T16:33:47.215Z,6.68
2022-09-09T16:36:15.397Z,4.57
2022-09-09T16:41:10.489Z,4.28
2022-09-09T16:43:38.375Z,4.88
2022-09-09T16:46:13.206Z,4.93
2022-09-09T16:48:40.608Z,7.93
2022-09-09T16:51:08.759Z,6.45
2022-09-09T16:53:35.847Z,6.45
2022-09-09T16:56:09.780Z,4.93
2022-09-09T16:58:37.779Z,7.35
2022-09-09T17:01:05.421Z,5.70
2022-09-09T17:03:33.534Z,7.68
2022-09-09T17:06:03.965Z,6.07
2022-09-09T17:08:31.699Z,7.00
2022-09-09T17:11:00.330Z,5.85
2022-09-09T17:13:27.690Z,7.47
2022-09-09T17:15:55.545Z,9.30
2022-09-09T17:18:26.359Z,5.90
2022-09-09T17:20:53.402Z,6.13
2022-09-09T17:23:20.724Z,5.45
2022-09-09T17:25:57.782Z,8.02
2022-09-09T17:28:28.296Z,8.07
2022-09-09T17:30:55.414Z,5.45
2022-09-09T17:33:24.224Z,4.95
2022-09-09T17:35:51.272Z,4.45
2022-09-09T17:38:18.307Z,6.18
2022-09-09T17:40:47.147Z,7.00
2022-09-09T17:43:17.045Z,5.82
2022-09-09T17:45:44.461Z,5.80
2022-09-09T17:48:11.546Z,5.90
2022-09-09T17:50:38.585Z,6.38
2022-09-09T17:53:05.673Z,5.97
2022-09-09T17:55:34.282Z,5.97
2022-09-09T17:58:01.382Z,6.13
2022-09-09T18:00:31.121Z,6.38
2022-09-09T18:03:00.372Z,5.75
2022-09-09T18:05:27.471Z,4.72
2022-09-09T18:07:54.567Z,5.07
2022-09-09T18:10:21.633Z,7.32
2022-09-09T18:12:48.825Z,7.18
2022-09-09T18:15:24.110Z,6.72
2022-09-09T18:17:55.617Z,6.65
2022-09-09T18:20:23.309Z,6.57
2022-09-09T18:22:50.547Z,9.80
2022-09-09T18:25:18.002Z,9.98
2022-09-09T18:27:45.127Z,7.95
2022-09-09T18:30:12.611Z,6.13
2022-09-09T18:32:41.613Z,5.00
2022-09-09T18:35:08.843Z,6.03
2022-09-09T18:37:37.528Z,7.18
2022-09-09T18:40:05.201Z,9.25
2022-09-09T18:42:32.383Z,7.70
2022-09-09T18:44:59.508Z,6.88
2022-09-09T18:47:26.683Z,9.43
2022-09-09T18:49:53.976Z,8.65
2022-09-09T18:52:23.202Z,12.25
2022-09-09T18:54:51.096Z,8.65
2022-09-09T18:57:18.617Z,8.70
2022-09-09T18:59:45.678Z,10.25
2022-09-09T19:02:12.805Z,10.02
2022-09-09T19:04:39.958Z,11.27
2022-09-09T19:07:07.212Z,11.48
2022-09-09T19:09:34.386Z,10.82
2022-09-09T19:12:02.009Z,12.02
2022-09-09T19:14:29.435Z,10.35
2022-09-09T19:16:56.570Z,9.00
2022-09-09T19:19:28.570Z,7.35
2022-09-09T19:21:57.460Z,9.90
2022-09-09T19:24:29.141Z,8.10
2022-09-09T19:26:58.719Z,11.10
2022-09-09T19:29:27.526Z,8.55
2022-09-09T19:32:36.506Z,9.32
2022-09-09T19:34:44.056Z,9.82
2022-09-09T19:37:13.194Z,9.60
2022-09-09T19:39:46.147Z,8.77
2022-09-09T19:42:13.449Z,10.35
2022-09-09T19:44:41.391Z,8.07
2022-09-09T19:47:08.479Z,8.85
2022-09-09T19:49:36.930Z,7.97
2022-09-09T19:52:04.358Z,9.85
2022-09-09T19:54:33.253Z,10.00
2022-09-09T19:57:01.149Z,8.90
2022-09-09T19:59:30.443Z,9.90
2022-09-09T20:01:58.402Z,11.52
2022-09-09T20:04:26.328Z,8.80
2022-09-09T20:06:54.043Z,7.18
2022-09-09T20:09:21.638Z,7.68
2022-09-09T20:11:50.043Z,7.53
2022-09-09T20:16:45.617Z,10.30
2022-09-09T20:21:49.251Z,8.32
2022-09-09T20:24:18.780Z,6.95
2022-09-09T20:26:47.973Z,7.20
2022-09-09T20:29:16.762Z,8.40
2022-09-09T20:31:44.331Z,9.55
2022-09-09T20:34:15.865Z,10.57
2022-09-09T20:36:42.992Z,9.05
2022-09-09T20:39:11.971Z,8.63
2022-09-09T20:41:39.853Z,11.50
2022-09-09T20:44:09.428Z,11.00
2022-09-09T20:46:38.158Z,12.35
2022-09-09T20:49:06.744Z,12.38
2022-09-09T20:51:34.505Z,12.25
2022-09-09T20:54:06.228Z,10.27
2022-09-09T20:56:34.526Z,10.60
2022-09-09T20:59:02.713Z,10.95
2022-09-09T21:01:29.936Z,13.38
2022-09-09T21:03:57.062Z,14.15
2022-09-09T21:06:24.187Z,12.93
2022-09-09T21:08:51.402Z,13.23
2022-09-09T21:11:18.659Z,10.85
2022-09-09T21:13:45.864Z,11.52
2022-09-09T21:16:14.890Z,14.15
2022-09-09T21:18:43.891Z,13.65
2022-09-09T21:21:11.225Z,11.90
2022-09-09T21:23:40.472Z,9.98
2022-09-09T21:26:08.176Z,13.63
2022-09-09T21:28:36.030Z,13.45
2022-09-09T21:31:03.965Z,12.32
2022-09-09T21:33:32.874Z,11.75
2022-09-09T21:36:03.748Z,12.98
2022-09-09T21:38:31.083Z,12.57
2022-09-09T21:40:58.235Z,11.65
2022-09-09T21:43:27.085Z,14.30
2022-09-09T21:45:54.361Z,16.13
2022-09-09T21:48:21.491Z,12.35
2022-09-09T21:50:48.868Z,10.75
2022-09-09T21:53:20.313Z,13.30
2022-09-09T21:55:50.626Z,14.90
2022-09-09T21:58:19.876Z,13.55
2022-09-09T22:00:47.635Z,15.00
2022-09-09T22:03:15.465Z,17.98
2022-09-09T22:05:43.516Z,12.93
2022-09-09T22:08:11.506Z,18.02
2022-09-09T22:10:40.805Z,18.23
2022-09-09T22:13:07.973Z,18.38
2022-09-09T22:15:36.643Z,18.27
2022-09-09T22:18:04.652Z,20.45
2022-09-09T22:20:35.181Z,15.07
2022-09-09T22:23:02.339Z,18.83
2022-09-09T22:25:33.313Z,18.30
2022-09-09T22:28:00.355Z,18.95
2022-09-09T22:30:29.676Z,18.48
2022-09-09T22:32:59.161Z,15.40
2022-09-09T22:35:26.222Z,18.15
2022-09-09T22:37:53.264Z,17.70
2022-09-09T22:40:20.300Z,16.83
2022-09-09T22:42:52.552Z,17.15
2022-09-09T22:45:20.863Z,17.95
2022-09-09T22:47:48.104Z,19.25
2022-09-09T22:50:15.321Z,20.02
2022-09-09T22:52:42.421Z,22.80
2022-09-09T22:55:09.614Z,16.90
2022-09-09T22:57:39.184Z,16.10
2022-09-09T23:00:09.697Z,18.33
2022-09-09T23:02:40.809Z,13.93
2022-09-09T23:05:11.164Z,16.95
2022-09-09T23:07:38.570Z,18.92
2022-09-09T23:10:06.136Z,14.75
2022-09-09T23:12:33.918Z,14.75
2022-09-09T23:15:01.083Z,15.07
2022-09-09T23:17:28.157Z,18.13
2022-09-09T23:19:58.167Z,15.07
2022-09-09T23:22:26.123Z,20.10
2022-09-09T23:24:53.929Z,15.18
2022-09-09T23:27:25.056Z,15.93
2022-09-09T23:29:52.181Z,15.32
2022-09-09T23:32:21.801Z,13.18
2022-09-09T23:34:48.891Z,13.30
2022-09-09T23:37:15.939Z,13.90
2022-09-09T23:39:43.496Z,15.80
2022-09-09T23:42:11.717Z,15.50
2022-09-09T23:44:42.729Z,11.88
2022-09-09T23:47:10.135Z,15.43
2022-09-09T23:49:40.526Z,12.63
2022-09-09T23:52:07.590Z,10.13
2022-09-09T23:54:35.207Z,10.38
2022-09-09T23:57:04.741Z,10.38
2022-09-09T23:59:32.259Z,11.35
